< < Back
Terminal Aerodrome Forecast


Current Version              Previous Versions:   1  2  3  4  5  6  7  8  9  

Terminal Aerodrome Forecast

275
FTUS42 KCAE 281726
TAFCAE
TAF
KCAE 281726Z 2818/2918 06010KT P6SM BKN040
     FM290000 VRB03KT P6SM SCT030 BKN150
     FM290900 04004KT P6SM BKN020
     FM291500 04007KT P6SM BKN035=

Latest METAR

608
SAUS80 KWBC 290000 RRA
MTRCAE
METAR KCAE 282356Z 09008KT 10SM BKN075 BKN150 32/18 A3006 RMK AO2 SLP174
T03220178 10356 20322 53007


USA.gov is the U.S. government's official web portal to all federal, state and local government web resources and services.